createdAt,value
2018-07-06T00:02:16.486Z,23.11
2018-07-06T00:05:03.873Z,22.99
2018-07-06T00:07:50.428Z,22.94
2018-07-06T00:10:36.905Z,22.96
2018-07-06T00:13:23.559Z,22.95
2018-07-06T00:16:10.418Z,22.99
2018-07-06T00:18:56.842Z,22.97
2018-07-06T00:21:43.507Z,22.92
2018-07-06T00:24:30.035Z,22.93
2018-07-06T00:27:16.840Z,22.87
2018-07-06T00:30:03.375Z,22.90
2018-07-06T00:32:49.739Z,22.76
2018-07-06T00:35:36.422Z,22.75
2018-07-06T00:38:22.859Z,22.71
2018-07-06T00:41:09.693Z,22.48
2018-07-06T00:43:56.209Z,22.41
2018-07-06T00:46:43.078Z,22.44
2018-07-06T00:49:29.805Z,22.43
2018-07-06T00:52:16.354Z,22.59
2018-07-06T00:55:03.193Z,22.85
2018-07-06T00:57:52.702Z,22.92
2018-07-06T01:00:39.372Z,23.01
2018-07-06T01:03:26.159Z,23.12
2018-07-06T01:06:12.967Z,23.27
2018-07-06T01:09:00.082Z,23.30
2018-07-06T01:11:46.837Z,23.30
2018-07-06T01:14:33.308Z,23.19
2018-07-06T01:17:19.729Z,23.23
2018-07-06T01:20:06.234Z,23.30
2018-07-06T01:22:53.170Z,23.41
2018-07-06T01:25:40.841Z,23.51
2018-07-06T01:28:27.424Z,23.50
2018-07-06T01:31:13.923Z,23.52
2018-07-06T01:34:00.811Z,23.51
2018-07-06T01:36:48.019Z,23.54
2018-07-06T01:39:34.727Z,23.48
2018-07-06T01:42:21.058Z,23.55
2018-07-06T01:45:08.041Z,23.49
2018-07-06T01:47:54.952Z,23.29
2018-07-06T01:50:41.863Z,22.97
2018-07-06T01:53:28.427Z,23.02
2018-07-06T01:56:14.805Z,23.20
2018-07-06T01:59:01.338Z,23.28
2018-07-06T02:01:47.845Z,23.37
2018-07-06T02:04:34.234Z,23.33
2018-07-06T02:07:20.536Z,23.27
2018-07-06T02:10:06.798Z,23.27
2018-07-06T02:12:53.374Z,23.34
2018-07-06T02:15:40.006Z,23.33
2018-07-06T02:18:26.121Z,23.35
2018-07-06T02:21:12.907Z,23.42
2018-07-06T02:23:59.424Z,23.48
2018-07-06T02:26:45.955Z,23.50
2018-07-06T02:29:32.674Z,23.55
2018-07-06T02:32:18.830Z,23.48
2018-07-06T02:35:05.409Z,23.38
2018-07-06T02:37:46.019Z,23.38
2018-07-06T02:40:33.023Z,23.33
2018-07-06T02:43:19.679Z,23.25
2018-07-06T02:46:00.224Z,23.17
2018-07-06T02:48:46.975Z,23.12
2018-07-06T02:51:33.478Z,23.07
2018-07-06T02:54:19.637Z,23.09
2018-07-06T02:57:06.319Z,23.16
2018-07-06T02:59:52.895Z,23.21
2018-07-06T03:02:39.409Z,23.20
2018-07-06T03:05:25.929Z,23.25
2018-07-06T03:08:12.539Z,23.21
2018-07-06T03:10:59.350Z,23.22
2018-07-06T03:13:45.704Z,23.21
2018-07-06T03:16:32.373Z,23.19
2018-07-06T03:19:19.045Z,23.21
2018-07-06T03:22:05.744Z,23.16
2018-07-06T03:24:52.668Z,23.04
2018-07-06T03:27:39.289Z,23.09
2018-07-06T03:30:25.840Z,23.14
2018-07-06T03:33:12.562Z,23.15
2018-07-06T03:35:58.980Z,23.11
2018-07-06T03:38:46.044Z,23.04
2018-07-06T03:41:32.874Z,23.06
2018-07-06T03:44:19.478Z,23.07
2018-07-06T03:47:05.989Z,23.07
2018-07-06T03:49:52.599Z,23.08
2018-07-06T03:52:39.424Z,23.10
2018-07-06T03:55:26.183Z,22.98
2018-07-06T03:58:12.953Z,22.82
2018-07-06T04:00:59.660Z,22.70
2018-07-06T04:03:46.233Z,22.66
2018-07-06T04:06:33.124Z,22.70
2018-07-06T04:09:20.030Z,22.77
2018-07-06T04:12:06.643Z,22.77
2018-07-06T04:14:53.978Z,22.87
2018-07-06T04:17:40.649Z,22.81
2018-07-06T04:20:27.184Z,22.84
2018-07-06T04:23:13.612Z,22.91
2018-07-06T04:25:59.952Z,22.78
2018-07-06T04:28:46.894Z,22.84
2018-07-06T04:31:33.639Z,22.70
2018-07-06T04:34:20.285Z,22.70
2018-07-06T04:37:06.744Z,22.78
2018-07-06T04:39:53.023Z,22.70
2018-07-06T04:42:39.633Z,22.46
2018-07-06T04:45:26.183Z,22.57
2018-07-06T04:48:13.312Z,22.56
2018-07-06T04:51:00.093Z,22.62
2018-07-06T04:53:46.433Z,22.72
2018-07-06T04:56:32.919Z,22.88
2018-07-06T04:59:19.403Z,23.00
2018-07-06T05:02:05.960Z,22.95
2018-07-06T05:04:52.383Z,22.94
2018-07-06T05:07:39.313Z,22.99
2018-07-06T05:10:26.023Z,22.97
2018-07-06T05:13:12.458Z,22.75
2018-07-06T05:15:59.474Z,22.39
2018-07-06T05:18:45.886Z,22.16
2018-07-06T05:21:32.485Z,21.96
2018-07-06T05:24:19.387Z,21.63
2018-07-06T05:27:05.855Z,21.43
2018-07-06T05:29:52.438Z,21.41
2018-07-06T05:32:39.628Z,21.08
2018-07-06T05:35:26.019Z,21.22
2018-07-06T05:38:12.565Z,21.42
2018-07-06T05:40:59.144Z,21.51
2018-07-06T05:43:45.573Z,21.30
2018-07-06T05:46:32.249Z,21.11
2018-07-06T05:49:19.024Z,21.14
2018-07-06T05:52:05.499Z,21.36
2018-07-06T05:54:52.049Z,21.37
2018-07-06T05:57:38.401Z,21.30
2018-07-06T06:00:25.171Z,21.41
2018-07-06T06:03:11.958Z,21.79
2018-07-06T06:05:58.753Z,22.12
2018-07-06T06:08:26.583Z,22.47
2018-07-06T06:10:56.128Z,22.61
2018-07-06T06:13:26.268Z,22.47
2018-07-06T06:15:56.568Z,22.05
2018-07-06T06:18:26.734Z,21.90
2018-07-06T06:20:56.964Z,22.06
2018-07-06T06:23:27.489Z,22.14
2018-07-06T06:25:57.539Z,22.09
2018-07-06T06:28:27.805Z,22.20
2018-07-06T06:30:57.828Z,22.34
2018-07-06T06:33:28.151Z,22.48
2018-07-06T06:35:58.069Z,22.15
2018-07-06T06:38:28.348Z,22.04
2018-07-06T06:40:58.464Z,21.90
2018-07-06T06:43:28.798Z,22.01
2018-07-06T06:45:59.043Z,21.78
2018-07-06T06:48:29.194Z,21.60
2018-07-06T06:50:59.184Z,21.75
2018-07-06T06:53:29.785Z,22.05
2018-07-06T06:55:59.989Z,22.21
2018-07-06T06:58:29.980Z,22.05
2018-07-06T07:01:00.095Z,22.04
2018-07-06T07:03:30.249Z,22.16
2018-07-06T07:06:00.594Z,22.62
2018-07-06T07:08:30.689Z,22.86
2018-07-06T07:11:00.860Z,23.09
2018-07-06T07:13:30.776Z,23.26
2018-07-06T07:16:00.905Z,23.43
2018-07-06T07:18:31.001Z,23.56
2018-07-06T07:21:01.910Z,23.42
2018-07-06T07:23:33.076Z,23.31
2018-07-06T07:26:04.405Z,23.26
2018-07-06T07:28:35.217Z,22.78
2018-07-06T07:31:06.654Z,22.49
2018-07-06T07:33:37.115Z,22.43
2018-07-06T07:36:07.385Z,22.58
2018-07-06T07:38:37.296Z,22.97
2018-07-06T07:41:07.189Z,23.15
2018-07-06T07:43:37.209Z,23.08
2018-07-06T07:46:07.431Z,22.95
2018-07-06T07:48:37.654Z,22.70
2018-07-06T07:53:27.239Z,22.64
2018-07-06T07:55:57.620Z,22.41
2018-07-06T07:58:27.871Z,21.98
2018-07-06T08:00:58.098Z,21.76
2018-07-06T08:03:28.184Z,21.69
2018-07-06T08:05:58.542Z,21.76
2018-07-06T08:08:28.202Z,21.93
2018-07-06T08:10:58.835Z,22.02
2018-07-06T08:13:29.175Z,22.06
2018-07-06T08:15:59.376Z,21.91
2018-07-06T08:18:29.421Z,21.81
2018-07-06T08:20:59.415Z,21.92
2018-07-06T08:23:30.846Z,21.81
2018-07-06T08:26:01.449Z,21.81
2018-07-06T08:28:32.226Z,21.54
2018-07-06T08:31:03.345Z,21.63
2018-07-06T08:33:42.881Z,21.65
2018-07-06T08:37:28.571Z,21.59
2018-07-06T08:39:58.985Z,21.72
2018-07-06T08:42:30.528Z,21.97
2018-07-06T08:45:01.482Z,22.24
2018-07-06T08:47:31.206Z,22.46
2018-07-06T08:50:02.305Z,22.60
2018-07-06T08:52:32.444Z,22.60
2018-07-06T08:55:02.645Z,22.67
2018-07-06T08:57:33.640Z,22.66
2018-07-06T09:00:04.140Z,22.77
2018-07-06T09:02:34.385Z,22.74
2018-07-06T09:05:04.675Z,22.83
2018-07-06T09:07:34.914Z,22.84
2018-07-06T09:10:05.247Z,22.54
2018-07-06T09:12:35.648Z,22.40
2018-07-06T09:15:07.255Z,22.42
2018-07-06T09:17:37.561Z,22.41
2018-07-06T09:20:07.860Z,22.62
2018-07-06T09:22:37.934Z,22.93
2018-07-06T09:25:08.594Z,23.26
2018-07-06T09:27:38.829Z,23.56
2018-07-06T09:30:09.401Z,23.60
2018-07-06T09:32:39.655Z,23.58
2018-07-06T09:35:09.705Z,23.50
2018-07-06T09:37:39.956Z,23.34
2018-07-06T09:40:10.622Z,23.03
2018-07-06T09:42:40.531Z,22.69
2018-07-06T09:45:10.908Z,22.70
2018-07-06T09:47:41.115Z,22.86
2018-07-06T09:50:11.180Z,23.07
2018-07-06T09:52:41.224Z,23.28
2018-07-06T09:55:11.056Z,23.43
2018-07-06T09:57:41.162Z,23.60
2018-07-06T10:00:15.419Z,23.78
2018-07-06T10:02:45.929Z,23.97
2018-07-06T10:05:15.972Z,24.14
2018-07-06T10:07:46.376Z,24.25
2018-07-06T10:10:16.695Z,24.50
2018-07-06T10:12:46.590Z,24.61
2018-07-06T10:15:16.921Z,24.53
2018-07-06T10:17:47.075Z,24.51
2018-07-06T10:20:17.271Z,24.61
2018-07-06T10:22:47.414Z,24.81
2018-07-06T10:25:17.582Z,24.72
2018-07-06T10:28:02.600Z,24.98
2018-07-06T10:30:44.341Z,24.91
2018-07-06T10:33:14.403Z,25.06
2018-07-06T10:35:44.721Z,24.90
2018-07-06T10:38:14.389Z,24.00
2018-07-06T10:40:44.415Z,23.99
2018-07-06T10:43:14.478Z,24.14
2018-07-06T10:45:44.661Z,24.41
2018-07-06T10:48:14.809Z,24.74
2018-07-06T10:50:45.104Z,24.99
2018-07-06T10:53:15.233Z,25.21
2018-07-06T10:55:45.325Z,24.91
2018-07-06T10:58:15.184Z,24.84
2018-07-06T11:00:45.680Z,24.85
2018-07-06T11:03:16.044Z,24.96
2018-07-06T11:05:46.467Z,25.26
2018-07-06T11:08:16.640Z,25.21
2018-07-06T11:10:46.700Z,24.97
2018-07-06T11:13:16.848Z,24.83
2018-07-06T11:15:46.965Z,24.66
2018-07-06T11:18:17.159Z,24.75
2018-07-06T11:20:47.227Z,25.01
2018-07-06T11:23:17.249Z,25.22
2018-07-06T11:25:47.763Z,25.50
2018-07-06T11:28:17.975Z,25.73
2018-07-06T11:30:48.147Z,25.72
2018-07-06T11:33:18.293Z,25.59
2018-07-06T11:35:48.663Z,25.68
2018-07-06T11:38:18.787Z,25.85
2018-07-06T11:40:48.858Z,26.03
2018-07-06T11:43:19.066Z,25.78
2018-07-06T11:45:49.205Z,25.72
2018-07-06T11:48:20.401Z,25.51
2018-07-06T11:50:50.659Z,25.67
2018-07-06T11:53:21.704Z,25.93
2018-07-06T11:55:53.105Z,26.20
2018-07-06T11:58:23.245Z,26.50
2018-07-06T12:00:53.411Z,26.65
2018-07-06T12:03:23.525Z,26.78
2018-07-06T12:05:53.799Z,26.71
2018-07-06T12:08:24.010Z,26.72
2018-07-06T12:10:54.088Z,26.95
2018-07-06T12:13:24.323Z,27.03
2018-07-06T12:15:54.448Z,26.71
2018-07-06T12:18:24.740Z,26.66
2018-07-06T12:20:55.052Z,26.60
2018-07-06T12:23:25.085Z,26.58
2018-07-06T12:25:55.347Z,26.58
2018-07-06T12:28:25.772Z,26.65
2018-07-06T12:30:55.669Z,26.74
2018-07-06T12:33:25.790Z,26.75
2018-07-06T12:35:56.485Z,26.84
2018-07-06T12:38:26.422Z,26.93
2018-07-06T12:40:56.402Z,27.16
2018-07-06T12:43:26.605Z,27.21
2018-07-06T12:45:56.639Z,27.06
2018-07-06T12:48:26.925Z,26.73
2018-07-06T12:50:57.404Z,26.55
2018-07-06T12:53:27.610Z,26.50
2018-07-06T12:55:58.196Z,26.57
2018-07-06T12:58:28.766Z,26.71
2018-07-06T13:00:59.111Z,26.81
2018-07-06T13:03:29.213Z,26.82
2018-07-06T13:05:59.572Z,26.90
2018-07-06T13:08:29.730Z,26.71
2018-07-06T13:10:59.957Z,26.75
2018-07-06T13:13:30.046Z,26.81
2018-07-06T13:16:00.147Z,26.78
2018-07-06T13:18:30.551Z,27.14
2018-07-06T13:21:00.580Z,27.40
2018-07-06T13:23:31.005Z,27.47
2018-07-06T13:26:01.805Z,27.70
2018-07-06T13:30:37.032Z,27.84
2018-07-06T13:33:07.157Z,28.01
2018-07-06T13:35:37.476Z,27.91
2018-07-06T13:38:07.522Z,27.71
2018-07-06T13:40:38.553Z,27.40
2018-07-06T13:43:08.916Z,27.05
2018-07-06T13:45:40.204Z,26.88
2018-07-06T13:48:11.302Z,26.80
2018-07-06T13:50:42.692Z,26.75
2018-07-06T13:53:13.682Z,26.75
2018-07-06T13:55:44.886Z,26.82
2018-07-06T13:58:14.997Z,27.13
2018-07-06T14:00:46.007Z,27.08
2018-07-06T14:03:16.281Z,27.22
2018-07-06T14:05:46.405Z,27.35
2018-07-06T14:08:16.309Z,27.33
2018-07-06T14:10:46.559Z,27.40
2018-07-06T14:13:16.949Z,27.43
2018-07-06T14:15:47.177Z,27.57
2018-07-06T14:18:17.485Z,27.77
2018-07-06T14:20:47.782Z,28.07
2018-07-06T14:23:17.963Z,28.12
2018-07-06T14:25:48.222Z,28.07
2018-07-06T14:28:18.356Z,28.04
2018-07-06T14:30:48.546Z,28.00
2018-07-06T14:33:18.817Z,28.01
2018-07-06T14:35:49.129Z,28.06
2018-07-06T14:38:19.255Z,28.09
2018-07-06T14:40:49.625Z,27.96
2018-07-06T14:43:19.510Z,27.99
2018-07-06T14:45:50.887Z,27.84
2018-07-06T14:48:21.117Z,27.61
2018-07-06T14:50:51.237Z,27.44
2018-07-06T14:53:21.570Z,27.49
2018-07-06T14:55:52.881Z,27.56
2018-07-06T14:58:23.461Z,27.78
2018-07-06T15:10:37.328Z,28.01
2018-07-06T15:13:07.472Z,28.68
2018-07-06T15:15:38.366Z,28.22
2018-07-06T15:18:08.870Z,28.04
2018-07-06T15:20:39.415Z,27.88
2018-07-06T15:23:09.992Z,27.91
2018-07-06T15:25:40.257Z,28.00
2018-07-06T15:28:10.506Z,28.26
2018-07-06T15:30:40.606Z,28.48
2018-07-06T15:33:10.696Z,28.70
2018-07-06T15:35:40.954Z,28.69
2018-07-06T15:38:11.124Z,28.87
2018-07-06T15:40:41.422Z,28.94
2018-07-06T15:43:13.012Z,28.93
2018-07-06T15:45:43.599Z,28.89
2018-07-06T15:48:14.991Z,29.02
2018-07-06T15:50:45.756Z,28.96
2018-07-06T15:53:16.548Z,29.22
2018-07-06T15:55:46.711Z,29.26
2018-07-06T15:58:16.526Z,29.62
2018-07-06T16:00:46.672Z,29.76
2018-07-06T16:03:17.066Z,29.92
2018-07-06T16:05:47.348Z,29.81
2018-07-06T16:08:17.432Z,29.69
2018-07-06T16:10:47.538Z,29.19
2018-07-06T16:13:17.793Z,28.75
2018-07-06T16:15:48.048Z,28.47
2018-07-06T16:18:18.206Z,28.60
2018-07-06T16:20:48.454Z,29.53
2018-07-06T16:23:18.687Z,29.59
2018-07-06T16:25:49.676Z,30.11
2018-07-06T16:28:20.042Z,30.00
2018-07-06T16:30:50.040Z,29.10
2018-07-06T16:33:20.341Z,29.47
2018-07-06T16:35:50.564Z,29.72
2018-07-06T16:38:20.629Z,31.00
2018-07-06T16:40:50.849Z,32.13
2018-07-06T16:43:21.062Z,32.60
2018-07-06T16:45:51.255Z,32.00
2018-07-06T16:48:21.561Z,31.54
2018-07-06T16:50:51.905Z,31.52
2018-07-06T16:53:22.027Z,30.70
2018-07-06T16:55:52.276Z,29.75
2018-07-06T16:58:22.396Z,29.89
2018-07-06T17:00:52.553Z,29.93
2018-07-06T17:03:22.877Z,30.39
2018-07-06T17:05:53.377Z,31.07
2018-07-06T17:08:23.797Z,30.83
2018-07-06T17:10:54.236Z,31.01
2018-07-06T17:13:24.728Z,31.18
2018-07-06T17:15:54.771Z,31.20
2018-07-06T17:18:24.882Z,30.71
2018-07-06T17:20:55.896Z,30.62
2018-07-06T17:23:26.698Z,30.97
2018-07-06T17:25:58.241Z,30.44
2018-07-06T17:28:29.025Z,30.52
2018-07-06T17:31:00.621Z,30.91
2018-07-06T17:33:31.106Z,31.14
2018-07-06T17:40:39.034Z,30.87
2018-07-06T17:43:09.192Z,30.30
2018-07-06T17:45:39.459Z,30.65
2018-07-06T17:48:09.533Z,31.14
2018-07-06T17:50:39.728Z,31.65
2018-07-06T17:53:11.056Z,31.40
2018-07-06T17:55:41.926Z,30.89
2018-07-06T17:58:13.300Z,30.84
2018-07-06T18:00:44.626Z,31.06
2018-07-06T18:03:15.652Z,31.29
2018-07-06T18:05:47.844Z,31.25
2018-07-06T18:08:18.842Z,31.45
2018-07-06T18:10:49.313Z,31.23
2018-07-06T18:13:20.145Z,31.04
2018-07-06T18:15:50.536Z,30.78
2018-07-06T18:18:20.854Z,30.73
2018-07-06T18:20:51.046Z,30.05
2018-07-06T18:23:21.208Z,29.28
2018-07-06T18:25:51.310Z,28.76
2018-07-06T18:28:21.640Z,28.44
2018-07-06T18:30:51.708Z,28.14
2018-07-06T18:33:21.784Z,27.54
2018-07-06T18:35:51.885Z,27.20
2018-07-06T18:38:21.885Z,27.16
2018-07-06T18:40:52.627Z,26.98
2018-07-06T18:43:22.730Z,26.78
2018-07-06T18:45:52.966Z,26.48
2018-07-06T18:48:23.516Z,26.20
2018-07-06T18:50:53.802Z,26.08
2018-07-06T18:53:23.925Z,26.04
2018-07-06T18:55:54.502Z,26.05
2018-07-06T18:58:24.712Z,25.96
2018-07-06T19:00:55.260Z,25.92
2018-07-06T19:03:25.885Z,25.82
2018-07-06T19:05:56.456Z,25.77
2018-07-06T19:08:26.771Z,25.64
2018-07-06T19:10:57.016Z,25.57
2018-07-06T19:13:27.078Z,25.53
2018-07-06T19:15:57.264Z,25.50
2018-07-06T19:18:27.713Z,25.45
2018-07-06T19:20:58.129Z,25.47
2018-07-06T19:23:28.720Z,25.48
2018-07-06T19:25:58.990Z,25.54
2018-07-06T19:28:29.348Z,25.56
2018-07-06T19:30:59.689Z,25.50
2018-07-06T19:33:30.341Z,25.50
2018-07-06T19:36:00.743Z,25.48
2018-07-06T19:38:31.143Z,25.45
2018-07-06T19:41:01.308Z,25.44
2018-07-06T19:43:31.705Z,25.49
2018-07-06T19:46:01.648Z,25.58
2018-07-06T19:48:31.875Z,25.62
2018-07-06T19:51:03.097Z,25.57
2018-07-06T19:53:33.994Z,25.61
2018-07-06T19:56:05.515Z,25.62
2018-07-06T19:58:36.381Z,25.56
2018-07-06T20:01:08.007Z,25.57
2018-07-06T20:03:38.705Z,25.54
2018-07-06T20:06:10.252Z,25.48
2018-07-06T20:08:41.114Z,25.45
2018-07-06T20:11:12.132Z,25.44
2018-07-06T20:13:43.217Z,25.40
2018-07-06T20:16:14.567Z,25.35
2018-07-06T20:18:45.653Z,25.31
2018-07-06T20:21:16.830Z,25.29
2018-07-06T20:23:47.940Z,25.25
2018-07-06T20:26:19.111Z,25.20
2018-07-06T20:28:49.944Z,25.17
2018-07-06T20:31:20.114Z,25.10
2018-07-06T20:33:50.585Z,25.09
2018-07-06T20:36:21.052Z,25.09
2018-07-06T20:38:51.136Z,25.08
2018-07-06T20:41:21.338Z,25.07
2018-07-06T20:43:51.598Z,25.03
2018-07-06T20:46:21.845Z,25.00
2018-07-06T20:48:52.184Z,24.97
2018-07-06T20:51:22.417Z,24.94
2018-07-06T20:53:52.258Z,24.94
2018-07-06T20:56:22.110Z,24.93
2018-07-06T20:58:52.701Z,24.88
2018-07-06T21:01:23.002Z,24.83
2018-07-06T21:03:53.701Z,24.80
2018-07-06T21:06:24.175Z,24.76
2018-07-06T21:08:54.373Z,24.74
2018-07-06T21:11:24.761Z,24.66
2018-07-06T21:13:55.263Z,24.65
2018-07-06T21:16:25.951Z,24.62
2018-07-06T21:18:56.313Z,24.61
2018-07-06T21:21:26.482Z,24.58
2018-07-06T21:23:56.557Z,24.55
2018-07-06T21:26:26.998Z,24.54
2018-07-06T21:28:57.186Z,24.43
2018-07-06T21:31:27.152Z,24.40
2018-07-06T21:33:57.437Z,24.33
2018-07-06T21:36:27.697Z,24.28
2018-07-06T21:38:57.718Z,24.27
2018-07-06T21:41:28.142Z,24.17
2018-07-06T21:43:58.381Z,24.13
2018-07-06T21:46:28.487Z,24.07
2018-07-06T21:48:58.435Z,24.01
2018-07-06T21:51:28.448Z,24.01
2018-07-06T21:53:59.015Z,23.94
2018-07-06T22:00:37.753Z,23.90
2018-07-06T22:03:09.532Z,23.75
2018-07-06T22:05:41.099Z,23.95
2018-07-06T22:08:11.313Z,24.18
2018-07-06T22:10:41.437Z,24.45
2018-07-06T22:13:11.732Z,24.65
2018-07-06T22:15:45.813Z,24.80
2018-07-06T22:18:17.591Z,25.01
2018-07-06T22:20:49.195Z,25.06
2018-07-06T22:23:19.347Z,25.15
2018-07-06T22:25:49.796Z,25.19
2018-07-06T22:28:19.981Z,25.29
2018-07-06T22:30:50.525Z,25.25
2018-07-06T22:33:20.692Z,25.25
2018-07-06T22:35:50.895Z,25.04
2018-07-06T22:38:21.465Z,24.80
2018-07-06T22:40:51.695Z,24.52
2018-07-06T22:43:21.867Z,24.24
2018-07-06T22:45:52.122Z,24.06
2018-07-06T22:48:22.197Z,23.98
2018-07-06T22:50:52.374Z,23.88
2018-07-06T22:53:22.530Z,23.81
2018-07-06T22:55:53.457Z,23.65
2018-07-06T22:58:24.641Z,23.54
2018-07-06T23:00:55.427Z,23.41
2018-07-06T23:03:25.510Z,23.33
2018-07-06T23:05:55.681Z,23.27
2018-07-06T23:08:25.873Z,23.29
2018-07-06T23:10:55.887Z,23.32
2018-07-06T23:13:26.229Z,23.30
2018-07-06T23:15:56.228Z,23.04
2018-07-06T23:18:26.657Z,23.21
2018-07-06T23:20:56.698Z,23.21
2018-07-06T23:23:26.986Z,23.25
2018-07-06T23:25:57.121Z,23.30
2018-07-06T23:28:27.027Z,23.33
2018-07-06T23:30:57.411Z,23.35
2018-07-06T23:33:27.771Z,23.35
2018-07-06T23:35:57.952Z,23.33
2018-07-06T23:38:28.158Z,23.31
2018-07-06T23:40:58.428Z,23.35
2018-07-06T23:43:28.598Z,23.35
2018-07-06T23:45:58.731Z,23.27
2018-07-06T23:48:28.961Z,23.21
2018-07-06T23:50:59.190Z,23.11
2018-07-06T23:53:29.321Z,23.05
2018-07-06T23:55:59.617Z,23.02
2018-07-06T23:58:29.690Z,23.01
